createdAt,value
2018-06-02T00:00:49.574Z,19.41
2018-06-02T00:01:49.501Z,19.44
2018-06-02T00:02:49.432Z,19.44
2018-06-02T00:03:49.362Z,19.37
2018-06-02T00:04:49.284Z,19.36
2018-06-02T00:05:49.209Z,19.44
2018-06-02T00:06:49.137Z,19.30
2018-06-02T00:07:49.060Z,19.29
2018-06-02T00:08:48.988Z,19.31
2018-06-02T00:09:48.923Z,19.29
2018-06-02T00:10:48.843Z,19.24
2018-06-02T00:11:48.769Z,19.30
2018-06-02T00:12:48.701Z,19.24
2018-06-02T00:13:48.625Z,19.31
2018-06-02T00:14:48.553Z,19.31
2018-06-02T00:15:48.494Z,19.31
2018-06-02T00:16:48.407Z,19.26
2018-06-02T00:17:48.331Z,19.36
2018-06-02T00:18:48.259Z,19.30
2018-06-02T00:19:48.184Z,19.24
2018-06-02T00:20:48.114Z,19.27
2018-06-02T00:21:48.046Z,19.31
2018-06-02T00:22:47.970Z,19.30
2018-06-02T00:23:47.903Z,19.33
2018-06-02T00:24:47.824Z,19.27
2018-06-02T00:25:47.751Z,19.33
2018-06-02T00:26:47.678Z,19.30
2018-06-02T00:27:47.609Z,19.33
2018-06-02T00:28:47.528Z,19.30
2018-06-02T00:29:47.457Z,19.26
2018-06-02T00:30:47.384Z,19.26
2018-06-02T00:31:47.311Z,19.29
2018-06-02T00:32:47.237Z,19.27
2018-06-02T00:33:47.175Z,19.30
2018-06-02T00:34:47.094Z,19.27
2018-06-02T00:35:47.018Z,19.30
2018-06-02T00:36:46.950Z,19.27
2018-06-02T00:37:46.877Z,19.30
2018-06-02T00:38:46.800Z,19.31
2018-06-02T00:39:46.732Z,19.34
2018-06-02T00:40:46.654Z,19.41
2018-06-02T00:41:46.581Z,19.44
2018-06-02T00:42:46.508Z,19.40
2018-06-02T00:43:46.436Z,19.48
2018-06-02T00:44:46.361Z,19.36
2018-06-02T00:45:46.301Z,19.36
2018-06-02T00:46:46.219Z,19.45
2018-06-02T00:47:46.152Z,19.36
2018-06-02T00:48:46.075Z,19.33
2018-06-02T00:49:45.996Z,19.33
2018-06-02T00:50:45.925Z,19.27
2018-06-02T00:51:45.857Z,19.27
2018-06-02T00:52:45.778Z,19.29
2018-06-02T00:53:45.708Z,19.30
2018-06-02T00:54:45.632Z,19.26
2018-06-02T00:55:45.561Z,19.27
2018-06-02T00:56:45.489Z,19.30
2018-06-02T00:57:45.415Z,19.30
2018-06-02T00:58:45.342Z,19.36
2018-06-02T00:59:45.269Z,19.24
2018-06-02T01:00:45.194Z,19.30
2018-06-02T01:01:45.132Z,19.33
2018-06-02T01:02:45.049Z,19.33
2018-06-02T01:03:44.975Z,19.31
2018-06-02T01:04:44.903Z,19.31
2018-06-02T01:05:44.831Z,19.26
2018-06-02T01:06:44.758Z,19.33
2018-06-02T01:07:44.681Z,19.30
2018-06-02T01:08:44.610Z,19.30
2018-06-02T01:09:44.536Z,19.33
2018-06-02T01:10:44.468Z,19.31
2018-06-02T01:11:44.411Z,19.26
2018-06-02T01:12:44.339Z,19.30
2018-06-02T01:13:44.254Z,19.33
2018-06-02T01:14:44.173Z,19.31
2018-06-02T01:15:44.100Z,19.30
2018-06-02T01:16:44.028Z,19.24
2018-06-02T01:17:43.953Z,19.30
2018-06-02T01:18:43.883Z,19.30
2018-06-02T01:19:43.817Z,19.33
2018-06-02T01:20:43.745Z,19.29
2018-06-02T01:21:43.662Z,19.19
2018-06-02T01:22:43.597Z,19.26
2018-06-02T01:23:43.515Z,19.30
2018-06-02T01:24:43.445Z,19.26
2018-06-02T01:25:43.378Z,19.26
2018-06-02T01:26:43.327Z,19.30
2018-06-02T01:27:43.229Z,19.29
2018-06-02T01:28:43.150Z,19.29
2018-06-02T01:29:43.079Z,19.30
2018-06-02T01:30:43.005Z,19.29
2018-06-02T01:31:42.936Z,19.24
2018-06-02T01:32:42.860Z,19.26
2018-06-02T01:33:42.787Z,19.29
2018-06-02T01:34:42.714Z,19.31
2018-06-02T01:35:42.641Z,19.30
2018-06-02T01:36:42.567Z,19.26
2018-06-02T01:37:42.504Z,19.27
2018-06-02T01:38:42.426Z,19.29
2018-06-02T01:39:42.352Z,19.31
2018-06-02T01:40:42.277Z,19.31
2018-06-02T01:41:42.203Z,19.24
2018-06-02T01:42:42.131Z,19.33
2018-06-02T01:43:42.058Z,19.26
2018-06-02T01:44:41.992Z,19.24
2018-06-02T01:45:41.911Z,19.27
2018-06-02T01:46:41.840Z,19.16
2018-06-02T01:47:41.783Z,19.27
2018-06-02T01:48:41.693Z,19.27
2018-06-02T01:49:41.623Z,19.30
2018-06-02T01:50:41.544Z,19.26
2018-06-02T01:51:41.471Z,19.29
2018-06-02T01:52:41.402Z,19.27
2018-06-02T01:53:41.330Z,19.27
2018-06-02T01:54:41.318Z,19.26
2018-06-02T01:55:41.183Z,19.29
2018-06-02T01:56:41.115Z,19.31
2018-06-02T01:57:41.036Z,19.24
2018-06-02T01:58:40.961Z,19.30
2018-06-02T01:59:40.888Z,19.30
2018-06-02T02:00:40.816Z,19.22
2018-06-02T02:01:40.742Z,19.34
2018-06-02T02:02:40.675Z,19.27
2018-06-02T02:03:40.595Z,19.26
2018-06-02T02:04:40.524Z,19.26
2018-06-02T02:05:40.453Z,19.31
2018-06-02T02:06:40.379Z,19.31
2018-06-02T02:07:40.304Z,19.26
2018-06-02T02:08:40.236Z,19.26
2018-06-02T02:09:40.160Z,19.31
2018-06-02T02:10:40.084Z,19.30
2018-06-02T02:11:40.013Z,19.29
2018-06-02T02:12:39.938Z,19.29
2018-06-02T02:13:39.869Z,19.29
2018-06-02T02:14:39.797Z,19.26
2018-06-02T02:15:39.727Z,19.29
2018-06-02T02:16:39.661Z,19.31
2018-06-02T02:17:39.597Z,19.34
2018-06-02T02:18:39.499Z,19.31
2018-06-02T02:19:39.429Z,19.36
2018-06-02T02:20:39.353Z,19.39
2018-06-02T02:21:39.291Z,19.39
2018-06-02T02:22:39.212Z,19.41
2018-06-02T02:23:39.149Z,19.41
2018-06-02T02:24:39.063Z,19.41
2018-06-02T02:25:38.990Z,19.39
2018-06-02T02:26:38.917Z,19.37
2018-06-02T02:27:38.847Z,19.40
2018-06-02T02:28:38.769Z,19.45
2018-06-02T02:29:38.699Z,19.41
2018-06-02T02:30:38.623Z,19.36
2018-06-02T02:31:38.554Z,19.45
2018-06-02T02:32:38.478Z,19.45
2018-06-02T02:33:38.414Z,19.39
2018-06-02T02:34:38.331Z,19.45
2018-06-02T02:35:38.263Z,19.34
2018-06-02T02:36:38.189Z,19.39
2018-06-02T02:37:38.115Z,19.39
2018-06-02T02:38:38.045Z,19.37
2018-06-02T02:39:37.972Z,19.41
2018-06-02T02:40:37.894Z,19.39
2018-06-02T02:41:37.821Z,19.44
2018-06-02T02:42:37.748Z,19.39
2018-06-02T02:43:37.672Z,19.39
2018-06-02T02:44:37.606Z,19.41
2018-06-02T02:45:37.537Z,19.41
2018-06-02T02:46:37.464Z,19.45
2018-06-02T02:47:37.382Z,19.41
2018-06-02T02:48:37.309Z,19.39
2018-06-02T02:49:37.236Z,19.47
2018-06-02T02:50:37.166Z,19.39
2018-06-02T02:51:37.100Z,19.37
2018-06-02T02:52:37.018Z,19.41
2018-06-02T02:53:36.945Z,19.44
2018-06-02T02:54:36.870Z,19.47
2018-06-02T02:55:36.799Z,19.40
2018-06-02T02:56:36.731Z,19.40
2018-06-02T02:57:36.657Z,19.41
2018-06-02T02:58:36.580Z,19.51
2018-06-02T02:59:36.508Z,19.51
2018-06-02T03:00:36.436Z,19.51
2018-06-02T03:01:36.361Z,19.51
2018-06-02T03:02:36.288Z,19.55
2018-06-02T03:03:36.221Z,19.55
2018-06-02T03:04:36.146Z,19.54
2018-06-02T03:05:36.068Z,19.55
2018-06-02T03:06:35.996Z,19.54
2018-06-02T03:07:35.921Z,19.47
2018-06-02T03:08:35.850Z,19.54
2018-06-02T03:09:35.785Z,19.52
2018-06-02T03:10:35.706Z,19.63
2018-06-02T03:11:35.637Z,19.59
2018-06-02T03:12:35.556Z,19.63
2018-06-02T03:13:35.485Z,19.56
2018-06-02T03:14:35.413Z,19.59
2018-06-02T03:15:35.359Z,19.58
2018-06-02T03:16:35.267Z,19.62
2018-06-02T03:17:35.194Z,19.58
2018-06-02T03:18:35.124Z,19.51
2018-06-02T03:19:35.054Z,19.63
2018-06-02T03:20:34.978Z,19.58
2018-06-02T03:21:34.908Z,19.63
2018-06-02T03:22:34.829Z,19.59
2018-06-02T03:23:34.755Z,19.49
2018-06-02T03:24:34.710Z,19.62
2018-06-02T03:25:34.618Z,19.51
2018-06-02T03:26:34.538Z,19.55
2018-06-02T03:27:34.462Z,19.55
2018-06-02T03:28:34.408Z,19.62
2018-06-02T03:29:34.321Z,19.49
2018-06-02T03:30:34.248Z,19.56
2018-06-02T03:31:34.177Z,19.48
2018-06-02T03:32:34.101Z,19.55
2018-06-02T03:33:34.028Z,19.58
2018-06-02T03:34:33.964Z,19.51
2018-06-02T03:35:33.884Z,19.64
2018-06-02T03:36:33.811Z,19.58
2018-06-02T03:37:33.735Z,19.66
2018-06-02T03:38:33.664Z,19.64
2018-06-02T03:39:33.597Z,19.54
2018-06-02T03:40:33.518Z,19.66
2018-06-02T03:41:33.446Z,19.59
2018-06-02T03:42:33.373Z,19.59
2018-06-02T03:43:33.299Z,19.63
2018-06-02T03:44:33.227Z,19.62
2018-06-02T03:45:33.156Z,19.59
2018-06-02T03:46:33.081Z,19.66
2018-06-02T03:47:33.007Z,19.63
2018-06-02T03:48:32.935Z,19.62
2018-06-02T03:49:32.863Z,19.63
2018-06-02T03:50:32.794Z,19.59
2018-06-02T03:51:32.726Z,19.51
2018-06-02T03:52:32.641Z,19.62
2018-06-02T03:53:32.569Z,19.48
2018-06-02T03:54:32.499Z,19.56
2018-06-02T03:55:32.432Z,19.56
2018-06-02T03:56:32.355Z,19.48
2018-06-02T03:57:32.286Z,19.49
2018-06-02T03:58:32.205Z,19.55
2018-06-02T03:59:32.137Z,19.51
2018-06-02T04:00:32.061Z,19.54
2018-06-02T04:01:31.991Z,19.58
2018-06-02T04:02:31.922Z,19.51
2018-06-02T04:03:31.844Z,19.48
2018-06-02T04:04:31.769Z,19.51
2018-06-02T04:05:31.696Z,19.51
2018-06-02T04:06:31.631Z,19.48
2018-06-02T04:07:31.550Z,19.58
2018-06-02T04:08:31.483Z,19.56
2018-06-02T04:09:31.413Z,19.62
2018-06-02T04:10:31.339Z,19.48
2018-06-02T04:11:31.265Z,19.51
2018-06-02T04:12:31.186Z,19.63
2018-06-02T04:13:31.116Z,19.59
2018-06-02T04:14:31.042Z,19.58
2018-06-02T04:15:30.976Z,19.62
2018-06-02T04:16:30.895Z,19.58
2018-06-02T04:17:30.821Z,19.62
2018-06-02T04:18:30.750Z,19.62
2018-06-02T04:19:30.678Z,19.64
2018-06-02T04:20:30.613Z,19.64
2018-06-02T04:21:30.529Z,19.58
2018-06-02T04:22:30.460Z,19.58
2018-06-02T04:23:30.386Z,19.56
2018-06-02T04:24:30.313Z,19.62
2018-06-02T04:25:30.237Z,19.59
2018-06-02T04:26:30.170Z,19.54
2018-06-02T04:27:30.091Z,19.51
2018-06-02T04:28:30.027Z,19.56
2018-06-02T04:29:29.954Z,19.59
2018-06-02T04:30:29.875Z,19.58
2018-06-02T04:31:29.805Z,19.62
2018-06-02T04:32:29.739Z,19.56
2018-06-02T04:33:29.657Z,19.64
2018-06-02T04:34:29.583Z,19.69
2018-06-02T04:35:29.509Z,19.70
2018-06-02T04:36:29.435Z,19.70
2018-06-02T04:37:29.369Z,19.76
2018-06-02T04:38:29.293Z,19.64
2018-06-02T04:39:29.224Z,19.64
2018-06-02T04:40:29.164Z,19.73
2018-06-02T04:41:29.096Z,19.73
2018-06-02T04:42:29.003Z,19.79
2018-06-02T04:43:28.928Z,19.77
2018-06-02T04:44:28.855Z,19.81
2018-06-02T04:45:28.792Z,19.82
2018-06-02T04:46:28.713Z,19.86
2018-06-02T04:47:28.636Z,19.86
2018-06-02T04:48:28.567Z,19.88
2018-06-02T04:49:28.501Z,19.92
2018-06-02T04:50:28.420Z,19.82
2018-06-02T04:51:28.349Z,19.86
2018-06-02T04:52:28.284Z,19.88
2018-06-02T04:53:28.201Z,19.82
2018-06-02T04:54:28.131Z,19.96
2018-06-02T04:55:28.059Z,19.94
2018-06-02T04:56:27.984Z,19.92
2018-06-02T04:57:27.915Z,19.94
2018-06-02T04:58:27.841Z,19.96
2018-06-02T04:59:27.775Z,19.95
2018-06-02T05:00:27.696Z,19.86
2018-06-02T05:01:27.625Z,19.92
2018-06-02T05:02:27.549Z,19.92
2018-06-02T05:03:27.506Z,19.92
2018-06-02T05:04:27.457Z,19.92
2018-06-02T05:05:27.330Z,19.91
2018-06-02T05:06:27.416Z,19.94
2018-06-02T05:07:27.189Z,19.81
2018-06-02T05:08:27.112Z,19.91
2018-06-02T05:09:27.044Z,19.89
2018-06-02T05:10:26.968Z,19.86
2018-06-02T05:11:26.894Z,19.84
2018-06-02T05:12:26.821Z,19.84
2018-06-02T05:13:26.752Z,19.94
2018-06-02T05:14:26.686Z,19.91
2018-06-02T05:15:26.676Z,19.91
2018-06-02T05:16:26.530Z,19.86
2018-06-02T05:17:26.462Z,19.76
2018-06-02T05:18:26.400Z,19.71
2018-06-02T05:19:26.315Z,19.82
2018-06-02T05:20:26.241Z,19.81
2018-06-02T05:21:26.186Z,19.77
2018-06-02T05:22:26.099Z,19.81
2018-06-02T05:23:26.026Z,19.62
2018-06-02T05:24:25.958Z,19.79
2018-06-02T05:25:25.879Z,19.67
2018-06-02T05:26:25.811Z,19.70
2018-06-02T05:27:25.735Z,19.69
2018-06-02T05:28:25.657Z,19.63
2018-06-02T05:29:25.628Z,19.64
2018-06-02T05:30:25.514Z,19.64
2018-06-02T05:31:25.442Z,19.64
2018-06-02T05:32:25.367Z,19.71
2018-06-02T05:33:25.306Z,19.79
2018-06-02T05:34:25.222Z,19.66
2018-06-02T05:35:25.184Z,19.82
2018-06-02T05:36:25.091Z,19.70
2018-06-02T05:37:25.073Z,19.71
2018-06-02T05:38:25.003Z,19.70
2018-06-02T05:39:24.858Z,19.74
2018-06-02T05:40:24.797Z,19.64
2018-06-02T05:41:24.714Z,19.67
2018-06-02T05:42:24.643Z,19.63
2018-06-02T05:43:24.567Z,19.70
2018-06-02T05:44:24.514Z,19.73
2018-06-02T05:45:24.422Z,19.73
2018-06-02T05:46:24.353Z,19.66
2018-06-02T05:47:25.476Z,19.70
2018-06-02T05:48:24.277Z,19.73
2018-06-02T05:49:24.132Z,19.70
2018-06-02T05:50:24.058Z,19.71
2018-06-02T05:51:23.985Z,19.58
2018-06-02T05:52:23.912Z,19.66
2018-06-02T05:53:23.844Z,19.73
2018-06-02T05:54:23.767Z,19.73
2018-06-02T05:55:23.693Z,19.74
2018-06-02T05:56:23.621Z,19.70
2018-06-02T05:57:23.553Z,19.71
2018-06-02T05:58:23.481Z,19.74
2018-06-02T05:59:23.402Z,19.76
2018-06-02T06:00:23.329Z,19.81
2018-06-02T06:01:23.260Z,19.84
2018-06-02T06:02:23.188Z,19.85
2018-06-02T06:03:23.112Z,19.88
2018-06-02T06:04:23.047Z,19.85
2018-06-02T06:05:22.967Z,19.99
2018-06-02T06:06:22.908Z,19.84
2018-06-02T06:07:22.819Z,19.84
2018-06-02T06:08:22.747Z,19.95
2018-06-02T06:09:22.676Z,19.92
2018-06-02T06:10:22.606Z,19.92
2018-06-02T06:11:22.528Z,19.94
2018-06-02T06:12:22.458Z,20.00
2018-06-02T06:13:22.385Z,20.06
2018-06-02T06:14:22.313Z,20.02
2018-06-02T06:15:22.246Z,20.04
2018-06-02T06:16:22.196Z,20.09
2018-06-02T06:17:22.096Z,20.14
2018-06-02T06:18:22.022Z,20.19
2018-06-02T06:19:21.949Z,20.28
2018-06-02T06:20:21.877Z,20.24
2018-06-02T06:21:21.805Z,20.22
2018-06-02T06:22:21.737Z,20.22
2018-06-02T06:23:21.660Z,20.18
2018-06-02T06:24:21.590Z,20.34
2018-06-02T06:25:21.516Z,20.24
2018-06-02T06:26:21.445Z,20.26
2018-06-02T06:27:21.374Z,20.26
2018-06-02T06:28:21.302Z,20.29
2018-06-02T06:29:21.227Z,20.36
2018-06-02T06:30:21.154Z,20.32
2018-06-02T06:31:21.083Z,20.37
2018-06-02T06:32:21.012Z,20.37
2018-06-02T06:33:20.937Z,20.39
2018-06-02T06:34:20.872Z,20.44
2018-06-02T06:35:20.792Z,20.48
2018-06-02T06:36:20.721Z,20.50
2018-06-02T06:37:20.656Z,20.44
2018-06-02T06:38:20.576Z,20.48
2018-06-02T06:39:20.509Z,20.50
2018-06-02T06:40:20.433Z,20.55
2018-06-02T06:41:20.360Z,20.56
2018-06-02T06:42:20.292Z,20.60
2018-06-02T06:43:20.221Z,20.66
2018-06-02T06:44:20.146Z,20.77
2018-06-02T06:45:20.080Z,20.72
2018-06-02T06:46:20.003Z,20.77
2018-06-02T06:47:19.929Z,20.65
2018-06-02T06:48:19.858Z,20.77
2018-06-02T06:49:19.793Z,20.77
2018-06-02T06:50:19.724Z,20.69
2018-06-02T06:51:19.641Z,20.77
2018-06-02T06:52:19.573Z,20.75
2018-06-02T06:53:19.502Z,20.66
2018-06-02T06:54:19.428Z,20.63
2018-06-02T06:55:19.359Z,20.58
2018-06-02T06:56:19.284Z,20.52
2018-06-02T06:57:19.210Z,20.58
2018-06-02T06:58:19.139Z,20.67
2018-06-02T06:59:19.070Z,20.63
2018-06-02T07:00:18.996Z,20.72
2018-06-02T07:01:18.926Z,20.75
2018-06-02T07:02:18.853Z,20.66
2018-06-02T07:03:18.811Z,20.69
2018-06-02T07:04:18.716Z,20.74
2018-06-02T07:05:18.635Z,20.75
2018-06-02T07:06:18.564Z,20.78
2018-06-02T07:07:18.499Z,20.78
2018-06-02T07:08:18.421Z,20.75
2018-06-02T07:09:18.357Z,20.82
2018-06-02T07:10:18.277Z,20.81
2018-06-02T07:11:18.207Z,20.80
2018-06-02T07:12:18.133Z,20.87
2018-06-02T07:13:18.061Z,20.80
2018-06-02T07:14:17.992Z,20.95
2018-06-02T07:15:17.926Z,20.96
2018-06-02T07:16:17.849Z,20.81
2018-06-02T07:17:17.775Z,20.92
2018-06-02T07:18:17.713Z,20.97
2018-06-02T07:19:17.640Z,20.97
2018-06-02T07:20:17.564Z,20.90
2018-06-02T07:21:17.496Z,20.96
2018-06-02T07:22:17.419Z,20.99
2018-06-02T07:23:17.345Z,20.99
2018-06-02T07:24:17.276Z,20.96
2018-06-02T07:25:17.204Z,20.95
2018-06-02T07:26:17.131Z,20.96
2018-06-02T07:27:17.059Z,20.95
2018-06-02T07:28:16.994Z,20.97
2018-06-02T07:29:16.917Z,20.96
2018-06-02T07:30:16.844Z,20.97
2018-06-02T07:31:16.773Z,21.06
2018-06-02T07:32:16.701Z,20.93
2018-06-02T07:33:16.630Z,21.06
2018-06-02T07:34:16.569Z,21.06
2018-06-02T07:35:16.485Z,21.02
2018-06-02T07:36:16.417Z,21.05
2018-06-02T07:37:16.348Z,21.03
2018-06-02T07:38:16.276Z,20.95
2018-06-02T07:39:16.199Z,20.97
2018-06-02T07:40:16.143Z,20.99
2018-06-02T07:41:16.069Z,20.96
2018-06-02T07:42:15.987Z,20.95
2018-06-02T07:43:15.912Z,20.97
2018-06-02T07:44:15.848Z,20.96
2018-06-02T07:45:15.772Z,20.96
2018-06-02T07:46:15.705Z,20.93
2018-06-02T07:47:15.625Z,21.03
2018-06-02T07:48:15.554Z,20.97
2018-06-02T07:49:15.484Z,21.02
2018-06-02T07:50:15.411Z,20.97
2018-06-02T07:51:15.341Z,21.05
2018-06-02T07:52:15.277Z,21.03
2018-06-02T07:53:15.203Z,21.02
2018-06-02T07:54:15.129Z,21.14
2018-06-02T07:55:15.073Z,21.18
2018-06-02T07:56:14.981Z,21.14
2018-06-02T07:57:14.908Z,21.18
2018-06-02T07:58:14.846Z,21.24
2018-06-02T07:59:14.765Z,21.35
2018-06-02T08:00:14.694Z,21.39
2018-06-02T08:01:14.625Z,21.32
2018-06-02T08:02:14.551Z,21.39
2018-06-02T08:03:14.477Z,21.48
2018-06-02T08:04:14.419Z,21.45
2018-06-02T08:05:14.338Z,21.52
2018-06-02T08:06:14.264Z,21.50
2018-06-02T08:07:14.193Z,21.60
2018-06-02T08:08:14.122Z,21.66
2018-06-02T08:09:14.053Z,21.62
2018-06-02T08:10:13.992Z,21.62
2018-06-02T08:11:13.914Z,21.70
2018-06-02T08:12:13.837Z,21.75
2018-06-02T08:13:13.765Z,21.75
2018-06-02T08:14:13.697Z,21.82
2018-06-02T08:15:13.624Z,21.82
2018-06-02T08:16:13.557Z,21.80
2018-06-02T08:17:13.483Z,21.80
2018-06-02T08:18:13.414Z,21.77
2018-06-02T08:19:13.340Z,21.91
2018-06-02T08:20:13.271Z,21.96
2018-06-02T08:21:13.198Z,21.96
2018-06-02T08:22:13.134Z,21.95
2018-06-02T08:23:13.055Z,22.00
2018-06-02T08:24:12.991Z,22.04
2018-06-02T08:25:12.920Z,22.07
2018-06-02T08:26:12.845Z,22.13
2018-06-02T08:27:12.774Z,22.14
2018-06-02T08:28:12.710Z,22.18
2018-06-02T08:29:12.633Z,22.13
2018-06-02T08:30:12.563Z,22.22
2018-06-02T08:31:12.492Z,22.22
2018-06-02T08:32:12.420Z,22.30
2018-06-02T08:33:12.350Z,22.35
2018-06-02T08:34:12.285Z,22.38
2018-06-02T08:35:12.207Z,22.45
2018-06-02T08:36:12.137Z,22.54
2018-06-02T08:37:12.069Z,22.51
2018-06-02T08:38:11.995Z,22.62
2018-06-02T08:39:11.926Z,22.60
2018-06-02T08:40:11.860Z,22.55
2018-06-02T08:41:11.793Z,22.55
2018-06-02T08:42:11.713Z,22.57
2018-06-02T08:43:11.648Z,22.54
2018-06-02T08:44:11.600Z,22.68
2018-06-02T08:45:11.506Z,22.65
2018-06-02T08:46:11.435Z,22.69
2018-06-02T08:47:11.374Z,22.62
2018-06-02T08:48:11.290Z,22.65
2018-06-02T08:49:11.222Z,22.54
2018-06-02T08:50:11.152Z,22.62
2018-06-02T08:51:11.087Z,22.68
2018-06-02T08:52:11.018Z,22.69
2018-06-02T08:53:10.955Z,22.62
2018-06-02T08:54:10.872Z,22.69
2018-06-02T08:55:10.808Z,22.70
2018-06-02T08:56:10.736Z,22.87
2018-06-02T08:57:10.661Z,22.83
2018-06-02T08:58:10.591Z,22.83
2018-06-02T08:59:10.525Z,22.83
2018-06-02T09:00:10.447Z,22.98
2018-06-02T09:01:10.385Z,22.88
2018-06-02T09:02:10.312Z,22.98
2018-06-02T09:03:10.257Z,23.08
2018-06-02T09:04:10.167Z,23.02
2018-06-02T09:05:10.137Z,23.10
2018-06-02T09:06:10.032Z,23.20
2018-06-02T09:07:09.963Z,23.21
2018-06-02T09:08:09.898Z,23.17
2018-06-02T09:09:09.829Z,23.24
2018-06-02T09:10:09.753Z,23.25
2018-06-02T09:11:09.687Z,23.20
2018-06-02T09:12:09.616Z,23.12
2018-06-02T09:13:09.547Z,23.02
2018-06-02T09:14:09.474Z,23.08
2018-06-02T09:15:09.400Z,23.08
2018-06-02T09:16:09.333Z,23.08
2018-06-02T09:17:09.269Z,23.03
2018-06-02T09:18:09.190Z,22.99
2018-06-02T09:19:09.122Z,23.09
2018-06-02T09:20:09.052Z,23.06
2018-06-02T09:21:08.981Z,23.03
2018-06-02T09:22:08.917Z,23.13
2018-06-02T09:23:08.842Z,22.98
2018-06-02T09:24:08.779Z,22.90
2018-06-02T09:25:08.709Z,22.91
2018-06-02T09:26:08.640Z,22.94
2018-06-02T09:27:08.563Z,22.88
2018-06-02T09:28:08.498Z,22.99
2018-06-02T09:29:08.422Z,22.96
2018-06-02T09:30:08.359Z,22.99
2018-06-02T09:31:08.286Z,23.02
2018-06-02T09:32:08.214Z,23.08
2018-06-02T09:33:08.151Z,23.21
2018-06-02T09:34:08.078Z,23.13
2018-06-02T09:35:08.059Z,23.18
2018-06-02T09:36:07.940Z,23.21
2018-06-02T09:37:07.865Z,23.09
2018-06-02T09:38:07.796Z,23.03
2018-06-02T09:39:07.731Z,22.94
2018-06-02T09:40:07.656Z,23.09
2018-06-02T09:41:07.586Z,23.02
2018-06-02T09:42:07.524Z,23.06
2018-06-02T09:43:07.448Z,23.13
2018-06-02T09:44:07.378Z,23.03
2018-06-02T09:45:07.308Z,23.06
2018-06-02T09:46:07.241Z,23.02
2018-06-02T09:47:07.169Z,23.06
2018-06-02T09:48:07.103Z,23.09
2018-06-02T09:49:07.030Z,23.09
2018-06-02T09:50:06.963Z,23.06
2018-06-02T09:51:06.894Z,22.94
2018-06-02T09:52:06.819Z,23.05
2018-06-02T09:53:06.750Z,23.03
2018-06-02T09:54:06.694Z,23.03
2018-06-02T09:55:06.611Z,23.00
2018-06-02T09:56:06.542Z,22.98
2018-06-02T09:57:06.473Z,22.91
2018-06-02T09:58:06.408Z,23.00
2018-06-02T09:59:06.333Z,22.90
2018-06-02T10:00:06.268Z,22.85
2018-06-02T10:01:06.191Z,22.84
2018-06-02T10:02:06.121Z,22.80
2018-06-02T10:03:06.059Z,22.75
2018-06-02T10:04:05.981Z,22.81
2018-06-02T10:05:05.913Z,22.78
2018-06-02T10:06:05.846Z,22.93
2018-06-02T10:07:05.769Z,22.76
2018-06-02T10:08:05.700Z,22.73
2018-06-02T10:09:05.628Z,22.72
2018-06-02T10:10:05.561Z,22.57
2018-06-02T10:11:05.489Z,22.68
2018-06-02T10:12:05.420Z,22.65
2018-06-02T10:13:05.355Z,22.66
2018-06-02T10:14:05.279Z,22.70
2018-06-02T10:15:05.208Z,22.68
2018-06-02T10:16:05.140Z,22.76
2018-06-02T10:17:05.069Z,22.78
2018-06-02T10:18:04.998Z,22.90
2018-06-02T10:19:04.936Z,22.88
2018-06-02T10:20:04.863Z,22.96
2018-06-02T10:21:04.788Z,23.06
2018-06-02T10:22:04.719Z,23.08
2018-06-02T10:23:04.649Z,23.18
2018-06-02T10:24:04.578Z,23.39
2018-06-02T10:25:04.512Z,23.28
2018-06-02T10:26:04.437Z,23.48
2018-06-02T10:27:04.366Z,23.44
2018-06-02T10:28:04.297Z,23.54
2018-06-02T10:29:04.227Z,23.62
2018-06-02T10:30:04.162Z,23.77
2018-06-02T10:31:04.100Z,23.78
2018-06-02T10:32:04.020Z,23.95
2018-06-02T10:33:03.947Z,24.05
2018-06-02T10:34:03.880Z,23.86
2018-06-02T10:35:03.810Z,23.96
2018-06-02T10:36:03.740Z,24.05
2018-06-02T10:37:03.674Z,24.23
2018-06-02T10:38:03.608Z,24.30
2018-06-02T10:39:03.531Z,24.33
2018-06-02T10:40:03.463Z,24.40
2018-06-02T10:41:03.393Z,24.43
2018-06-02T10:42:03.324Z,24.61
2018-06-02T10:43:03.262Z,24.45
2018-06-02T10:44:03.187Z,24.24
2018-06-02T10:45:03.120Z,24.28
2018-06-02T10:46:03.050Z,24.20
2018-06-02T10:47:02.982Z,24.20
2018-06-02T10:48:02.911Z,24.20
2018-06-02T10:49:02.845Z,24.23
2018-06-02T10:50:02.775Z,24.32
2018-06-02T10:51:02.703Z,24.30
2018-06-02T10:52:02.637Z,24.32
2018-06-02T10:53:02.571Z,24.30
2018-06-02T10:54:02.500Z,24.35
2018-06-02T10:55:02.437Z,24.45
2018-06-02T10:56:02.362Z,24.38
2018-06-02T10:57:02.294Z,24.47
2018-06-02T10:58:02.223Z,24.47
2018-06-02T10:59:02.154Z,24.57
2018-06-02T11:06:09.117Z,24.89
2018-06-02T11:07:08.994Z,24.85
2018-06-02T11:09:12.862Z,25.06
2018-06-02T11:10:12.742Z,24.98
2018-06-02T11:12:16.665Z,24.89
2018-06-02T11:13:16.591Z,24.85
2018-06-02T11:15:20.472Z,24.70
2018-06-02T11:16:20.352Z,24.68
2018-06-02T11:18:24.231Z,24.60
2018-06-02T11:19:24.137Z,24.65
2018-06-02T11:21:28.944Z,24.66
2018-06-02T11:22:28.871Z,24.58
2018-06-02T11:24:32.745Z,24.73
2018-06-02T11:25:32.632Z,24.65
2018-06-02T11:26:32.566Z,24.65
2018-06-02T11:27:32.487Z,24.63
2018-06-02T11:28:32.417Z,24.65
2018-06-02T11:29:32.352Z,24.68
2018-06-02T11:30:32.282Z,24.70
2018-06-02T11:31:32.212Z,24.68
2018-06-02T11:32:32.168Z,24.63
2018-06-02T11:33:32.077Z,24.70
2018-06-02T11:34:32.027Z,24.70
2018-06-02T11:35:31.937Z,24.76
2018-06-02T11:36:31.870Z,24.74
2018-06-02T11:37:31.800Z,24.66
2018-06-02T11:38:31.738Z,24.54
2018-06-02T11:39:31.665Z,24.57
2018-06-02T11:40:31.593Z,24.54
2018-06-02T11:41:31.527Z,24.74
2018-06-02T11:42:31.457Z,24.76
2018-06-02T11:43:31.393Z,24.84
2018-06-02T11:44:31.321Z,24.93
2018-06-02T11:45:31.261Z,25.03
2018-06-02T11:46:31.184Z,25.17
2018-06-02T11:47:31.115Z,25.33
2018-06-02T11:48:31.174Z,25.29
2018-06-02T11:49:30.977Z,25.28
2018-06-02T11:50:30.909Z,25.33
2018-06-02T11:51:30.841Z,25.28
2018-06-02T11:52:30.790Z,25.29
2018-06-02T11:53:30.703Z,25.33
2018-06-02T11:54:30.646Z,25.38
2018-06-02T11:55:30.568Z,25.60
2018-06-02T11:56:30.498Z,25.65
2018-06-02T11:57:30.435Z,25.72
2018-06-02T11:58:30.365Z,25.77
2018-06-02T11:59:30.300Z,25.83
2018-06-02T12:00:30.229Z,25.98
2018-06-02T12:01:30.158Z,25.95
2018-06-02T12:02:30.091Z,26.09
2018-06-02T12:03:30.039Z,26.02
2018-06-02T12:04:29.956Z,26.22
2018-06-02T12:05:29.889Z,26.18
2018-06-02T12:06:29.821Z,26.19
2018-06-02T12:07:29.756Z,25.99
2018-06-02T12:08:29.684Z,25.95
2018-06-02T12:09:29.617Z,25.96
2018-06-02T12:10:29.557Z,26.02
2018-06-02T12:11:29.483Z,26.10
2018-06-02T12:12:29.414Z,26.22
2018-06-02T12:13:29.375Z,26.29
2018-06-02T12:14:29.279Z,26.26
2018-06-02T12:15:29.212Z,26.52
2018-06-02T12:16:29.155Z,26.56
2018-06-02T12:17:29.078Z,26.66
2018-06-02T12:18:29.010Z,26.77
2018-06-02T12:19:28.943Z,26.78
2018-06-02T12:20:28.876Z,26.75
2018-06-02T12:21:28.807Z,26.60
2018-06-02T12:22:28.741Z,26.55
2018-06-02T12:23:28.673Z,26.51
2018-06-02T12:24:28.606Z,26.28
2018-06-02T12:25:28.539Z,26.16
2018-06-02T12:26:28.472Z,26.16
2018-06-02T12:27:28.414Z,26.06
2018-06-02T12:28:28.364Z,26.05
2018-06-02T12:29:28.269Z,26.09
2018-06-02T12:30:28.210Z,26.03
2018-06-02T12:31:28.136Z,26.09
2018-06-02T12:32:28.070Z,26.02
2018-06-02T12:33:28.005Z,26.00
2018-06-02T12:34:27.932Z,25.96
2018-06-02T12:35:27.867Z,25.96
2018-06-02T12:36:27.800Z,25.96
2018-06-02T12:37:27.730Z,25.96
2018-06-02T12:38:27.674Z,25.96
2018-06-02T12:39:27.597Z,25.93
2018-06-02T12:40:27.527Z,25.98
2018-06-02T12:41:27.468Z,26.09
2018-06-02T12:42:27.395Z,26.26
2018-06-02T12:43:27.325Z,26.16
2018-06-02T12:44:27.257Z,26.19
2018-06-02T12:45:27.192Z,26.18
2018-06-02T12:46:27.122Z,26.25
2018-06-02T12:47:27.080Z,26.23
2018-06-02T12:48:26.988Z,26.36
2018-06-02T12:49:27.976Z,26.48
2018-06-02T12:50:26.854Z,26.59
2018-06-02T12:51:26.786Z,26.71
2018-06-02T12:52:26.726Z,26.84
2018-06-02T12:53:26.719Z,26.96
2018-06-02T12:54:26.582Z,27.21
2018-06-02T12:55:26.535Z,27.35
2018-06-02T12:56:26.457Z,27.67
2018-06-02T12:57:26.393Z,27.82
2018-06-02T12:58:26.315Z,27.96
2018-06-02T12:59:26.249Z,28.17
2018-06-02T13:00:26.187Z,28.07
2018-06-02T13:01:26.119Z,28.14
2018-06-02T13:02:26.052Z,28.02
2018-06-02T13:03:25.987Z,28.07
2018-06-02T13:04:25.927Z,28.00